DIRECCIÓN GENERAL DE AERONÁUTICA CIVIL
DIRECCIÓN METEOROLÓGICA DE CHILE
INFORMACIÓN METAR Y TAF

FIR PUERTO MONTT

Estación: SCQP
METAR SCQP 262000Z 24009KT 210V280 CAVOK 22/12 Q1016=

TAF SCQP 261640Z 2618/2718 22007KT CAVOK TX20/2619Z TN06/2709Z BECMG 2704/2706 VRB02KT 6000 SCT010 TEMPO 2707/2711 0800 FG SCT004 BECMG 2714/2716 23006KT SCT020=

Estación: SCVD
METAR SCVD 262000Z 28005KT 210V020 CAVOK 21/10 Q1016=

TAF SCVD 261640Z 2618/2706 23007KT 9999 FEW030 TX19/2619Z TN09/2706Z BECMG 2701/2703 VRB02KT=

Estación: SCJO
METAR SCJO 261900Z VRB02KT 9999 FEW030 SCT200 19/08 Q1018=

TAF SCJO 261640Z 2618/2706 22005KT 9999 SCT040 TX18/2619Z TN09/2706Z BECMG 2701/2703 VRB02KT=

Estación: SCTE
METAR SCTE 262000Z 12009KT 9999 FEW040 SCT200 16/08 Q1019 NOSIG=

TAF SCTE 261640Z 2618/2718 14008KT 9999 SCT040 TX17/2620Z TN08/2709Z BECMG 2622/2700 18003KT CAVOK BECMG 2707/2709 32004KT 9999 SCT030 BKN140 BECMG 2714/2716 34010KT BKN040 BKN080=

Estación: SCPQ
METAR SCPQ 262000Z 13007KT 090V160 9999 FEW041 16/08 Q1018=

TAF SCPQ 261640Z 2618/2706 15006KT 9999 SCT040 TX15/2619Z TN10/2706Z BECMG 2700/2702 23005KT=

Estación: SCON
METAR SCON 262000Z 15007KT 120V180 9999 FEW020 13/08 Q1020=

TAF SCON 261640Z 2618/2706 17005KT 9999 SCT030 TX16/2619Z TN09/2706Z BECMG 2700/2702 29005KT BKN020 BKN120=

Estación: SCTN
METAR SCTN 251300Z AUTO 22004KT 9999 FEW015 OVC034 11/09 Q1021=

NIL=

Estación: SCFT
METAR SCFT 262000Z VRB04KT CAVOK 20/01 Q1015=

NIL=

Estación: SCAP
METAR SCAP 262000Z 25012KT CAVOK 20/03 Q1022=

NIL=

Estación: SCMK
METAR SCMK 262000Z 07003KT 9999 SCT025 13/06 Q1019=

TAF SCMK 261640Z 2618/2706 03005KT 9999 BKN030 TX14/2619Z TN09/2706Z BECMG 2700/2702 32006KT SCT020 BKN100=

Estación: SCAS
METAR SCAS 262000Z 25018KT CAVOK 15/05 Q1017=

NIL=

Estación: SCCY
METAR SCCY 262000Z 26009KT CAVOK 18/03 Q1015=

TAF SCCY 261640Z 2618/2706 27008KT 9999 SCT040 TX18/2619Z TN08/2706Z=

Estación: SCBA
METAR SCBA 262000Z 30023G34KT CAVOK 15/03 Q1013=

TAF SCBA 261640Z 2618/2718 30020G30KT CAVOK TX16/2619Z TN05/2709Z BECMG 2712/2714 9999 BKN050=

Estación: SCCC
METAR SCCC 262000Z 29019KT CAVOK 22/M01 Q1010=

NIL=

Estación: SCHR
METAR SCHR 262000Z 24007KT 9999 FEW040 SCT100 BKN200 18/03 Q1010=

TAF SCHR 261013Z 2612/2700 26011KT 9999 FEW040 TN09/2612Z TX18/2618Z TEMPO 2613/2617 25019KT CAVOK=


Volver